KARV/ARV METAR and TAF weather

Enter ICAO airport designator
Station Type Date Time Source
KARV METAR 2018/10/21 05:35 UTC NOAA

KARV 210535Z AUTO 00000KT 10SM OVC032 00/M04 A3023 RMK AO2 T10011040


Station Type Date Time Source
KARV Decoded METAR 2018/10/21 05:35 UTC NOAA

Minocqua/Woodruff, Lakeland Airport/Noble F. Lee Memorial Field, WI, United States (KARV) 45-56N 089-44W
Oct 21, 2018 - 01:35 AM EDT / 2018.10.21 0535 UTC
Wind: Calm:0
Visibility: 10 mile(s):0
Sky conditions: overcast
Temperature: 31.8 F (-0.1 C)
Dew Point: 24.8 F (-4.0 C)
Relative Humidity: 74%
Pressure (altimeter): 30.23 in. Hg (1023 hPa)
ob: KARV 210535Z AUTO 00000KT 10SM OVC032 00/M04 A3023 RMK AO2 T10011040
cycle: 5

Station Type Date Time Source
KARV TAF UTC NOAA

Error!


Example: see airport list